sensor_id;sensor_type;location;lat;lon;timestamp;temperature;humidity
13960;DHT22;7052;51.050;3.716;2023-01-29T00:02:18;1.50;99.90
13960;DHT22;7052;51.050;3.716;2023-01-29T00:04:47;1.40;99.90
13960;DHT22;7052;51.050;3.716;2023-01-29T00:07:16;1.30;99.90
13960;DHT22;7052;51.050;3.716;2023-01-29T00:09:47;1.40;99.90
13960;DHT22;7052;51.050;3.716;2023-01-29T00:12:18;1.40;99.90
13960;DHT22;7052;51.050;3.716;2023-01-29T00:14:46;1.40;99.90
13960;DHT22;7052;51.050;3.716;2023-01-29T00:17:22;1.30;99.90
13960;DHT22;7052;51.050;3.716;2023-01-29T00:19:54;1.30;99.90
13960;DHT22;7052;51.050;3.716;2023-01-29T00:22:23;1.20;99.90
13960;DHT22;7052;51.050;3.716;2023-01-29T00:24:56;1.20;99.90
13960;DHT22;7052;51.050;3.716;2023-01-29T00:27:23;1.20;99.90
13960;DHT22;7052;51.050;3.716;2023-01-29T00:29:50;1.10;99.90
13960;DHT22;7052;51.050;3.716;2023-01-29T00:32:36;1.10;99.90
13960;DHT22;7052;51.050;3.716;2023-01-29T00:35:04;1.10;99.90
13960;DHT22;7052;51.050;3.716;2023-01-29T00:37:31;1.10;99.90
13960;DHT22;7052;51.050;3.716;2023-01-29T00:40:01;1.10;99.90
13960;DHT22;7052;51.050;3.716;2023-01-29T00:42:33;1.10;99.90
13960;DHT22;7052;51.050;3.716;2023-01-29T00:45:18;1.00;99.90
13960;DHT22;7052;51.050;3.716;2023-01-29T00:47:45;1.10;99.90
13960;DHT22;7052;51.050;3.716;2023-01-29T00:50:12;1.10;99.90
13960;DHT22;7052;51.050;3.716;2023-01-29T00:52:40;1.00;99.90
13960;DHT22;7052;51.050;3.716;2023-01-29T00:55:15;1.00;99.90
13960;DHT22;7052;51.050;3.716;2023-01-29T00:57:44;1.10;99.90
13960;DHT22;7052;51.050;3.716;2023-01-29T01:00:14;1.10;99.90
13960;DHT22;7052;51.050;3.716;2023-01-29T01:02:41;1.10;99.90
13960;DHT22;7052;51.050;3.716;2023-01-29T01:05:26;1.10;99.90
13960;DHT22;7052;51.050;3.716;2023-01-29T01:07:56;1.10;99.90
13960;DHT22;7052;51.050;3.716;2023-01-29T01:10:29;1.10;99.90
13960;DHT22;7052;51.050;3.716;2023-01-29T01:12:59;1.10;99.90
13960;DHT22;7052;51.050;3.716;2023-01-29T01:15:29;1.10;99.90
13960;DHT22;7052;51.050;3.716;2023-01-29T01:18:01;1.20;99.90
13960;DHT22;7052;51.050;3.716;2023-01-29T01:20:32;1.20;99.90
13960;DHT22;7052;51.050;3.716;2023-01-29T01:22:59;1.20;99.90
13960;DHT22;7052;51.050;3.716;2023-01-29T01:25:32;1.30;99.90
13960;DHT22;7052;51.050;3.716;2023-01-29T01:27:59;1.30;99.90
13960;DHT22;7052;51.050;3.716;2023-01-29T01:30:27;1.30;99.90
13960;DHT22;7052;51.050;3.716;2023-01-29T01:32:57;1.30;99.90
13960;DHT22;7052;51.050;3.716;2023-01-29T01:35:25;1.30;99.90
13960;DHT22;7052;51.050;3.716;2023-01-29T01:37:52;1.40;99.90
13960;DHT22;7052;51.050;3.716;2023-01-29T01:40:22;1.40;99.90
13960;DHT22;7052;51.050;3.716;2023-01-29T01:42:54;1.40;99.90
13960;DHT22;7052;51.050;3.716;2023-01-29T01:45:24;1.40;99.90
13960;DHT22;7052;51.050;3.716;2023-01-29T01:47:57;1.40;99.90
13960;DHT22;7052;51.050;3.716;2023-01-29T01:50:30;1.50;99.90
13960;DHT22;7052;51.050;3.716;2023-01-29T01:53:06;1.40;99.90
13960;DHT22;7052;51.050;3.716;2023-01-29T01:55:42;1.80;99.90
13960;DHT22;7052;51.050;3.716;2023-01-29T01:58:17;1.40;99.90
13960;DHT22;7052;51.050;3.716;2023-01-29T02:00:47;1.50;99.90
13960;DHT22;7052;51.050;3.716;2023-01-29T02:03:15;1.50;99.90
13960;DHT22;7052;51.050;3.716;2023-01-29T02:06:02;1.50;99.90
13960;DHT22;7052;51.050;3.716;2023-01-29T02:08:51;1.50;99.90
13960;DHT22;7052;51.050;3.716;2023-01-29T02:11:39;1.50;99.90
13960;DHT22;7052;51.050;3.716;2023-01-29T02:14:08;1.60;99.90
13960;DHT22;7052;51.050;3.716;2023-01-29T02:16:40;1.60;99.90
13960;DHT22;7052;51.050;3.716;2023-01-29T02:19:15;1.60;99.90
13960;DHT22;7052;51.050;3.716;2023-01-29T02:22:04;1.90;99.90
13960;DHT22;7052;51.050;3.716;2023-01-29T02:24:57;1.60;99.90
13960;DHT22;7052;51.050;3.716;2023-01-29T02:30:25;1.70;99.90
13960;DHT22;7052;51.050;3.716;2023-01-29T02:32:59;1.70;99.90
13960;DHT22;7052;51.050;3.716;2023-01-29T02:35:34;1.50;99.90
13960;DHT22;7052;51.050;3.716;2023-01-29T02:38:10;1.70;99.90
13960;DHT22;7052;51.050;3.716;2023-01-29T02:40:45;1.70;99.90
13960;DHT22;7052;51.050;3.716;2023-01-29T02:43:29;1.70;99.90
13960;DHT22;7052;51.050;3.716;2023-01-29T02:46:05;1.70;99.90
13960;DHT22;7052;51.050;3.716;2023-01-29T02:48:40;1.70;99.90
13960;DHT22;7052;51.050;3.716;2023-01-29T02:51:16;1.80;99.90
13960;DHT22;7052;51.050;3.716;2023-01-29T02:53:50;1.70;99.90
13960;DHT22;7052;51.050;3.716;2023-01-29T02:56:23;1.80;99.90
13960;DHT22;7052;51.050;3.716;2023-01-29T02:58:57;1.60;99.90
13960;DHT22;7052;51.050;3.716;2023-01-29T03:01:37;1.80;99.90
13960;DHT22;7052;51.050;3.716;2023-01-29T03:04:10;1.90;99.90
13960;DHT22;7052;51.050;3.716;2023-01-29T03:06:45;1.90;99.90
13960;DHT22;7052;51.050;3.716;2023-01-29T03:09:18;1.90;99.90
13960;DHT22;7052;51.050;3.716;2023-01-29T03:11:51;1.90;99.90
13960;DHT22;7052;51.050;3.716;2023-01-29T03:14:24;1.80;99.90
13960;DHT22;7052;51.050;3.716;2023-01-29T03:17:18;2.00;99.90
13960;DHT22;7052;51.050;3.716;2023-01-29T03:19:46;2.00;99.90
13960;DHT22;7052;51.050;3.716;2023-01-29T03:22:14;2.00;99.90
13960;DHT22;7052;51.050;3.716;2023-01-29T03:24:48;2.00;99.90
13960;DHT22;7052;51.050;3.716;2023-01-29T03:27:39;2.00;99.90
13960;DHT22;7052;51.050;3.716;2023-01-29T03:30:25;2.00;99.90
13960;DHT22;7052;51.050;3.716;2023-01-29T03:33:14;2.00;99.90
13960;DHT22;7052;51.050;3.716;2023-01-29T03:35:48;2.00;99.90
13960;DHT22;7052;51.050;3.716;2023-01-29T03:38:19;2.00;99.90
13960;DHT22;7052;51.050;3.716;2023-01-29T03:40:49;2.00;99.90
13960;DHT22;7052;51.050;3.716;2023-01-29T03:43:25;2.00;99.90
13960;DHT22;7052;51.050;3.716;2023-01-29T03:46:03;2.10;99.90
13960;DHT22;7052;51.050;3.716;2023-01-29T03:48:38;2.10;99.90
13960;DHT22;7052;51.050;3.716;2023-01-29T03:51:17;2.50;99.90
13960;DHT22;7052;51.050;3.716;2023-01-29T03:53:59;2.10;99.90
13960;DHT22;7052;51.050;3.716;2023-01-29T03:56:46;2.10;99.90
13960;DHT22;7052;51.050;3.716;2023-01-29T03:59:22;2.10;99.90
13960;DHT22;7052;51.050;3.716;2023-01-29T04:01:55;2.10;99.90
13960;DHT22;7052;51.050;3.716;2023-01-29T04:04:28;2.10;99.90
13960;DHT22;7052;51.050;3.716;2023-01-29T04:07:07;2.20;99.90
13960;DHT22;7052;51.050;3.716;2023-01-29T04:09:46;2.20;99.90
13960;DHT22;7052;51.050;3.716;2023-01-29T04:12:24;2.20;99.90
13960;DHT22;7052;51.050;3.716;2023-01-29T04:14:53;2.20;99.90
13960;DHT22;7052;51.050;3.716;2023-01-29T04:17:23;2.20;99.90
13960;DHT22;7052;51.050;3.716;2023-01-29T04:19:58;2.20;99.90
13960;DHT22;7052;51.050;3.716;2023-01-29T04:22:33;2.20;99.90
13960;DHT22;7052;51.050;3.716;2023-01-29T04:25:02;2.10;99.90
13960;DHT22;7052;51.050;3.716;2023-01-29T04:27:41;2.20;99.90
13960;DHT22;7052;51.050;3.716;2023-01-29T04:30:19;2.20;99.90
13960;DHT22;7052;51.050;3.716;2023-01-29T04:32:56;2.20;99.90
13960;DHT22;7052;51.050;3.716;2023-01-29T04:35:48;2.20;99.90
13960;DHT22;7052;51.050;3.716;2023-01-29T04:38:27;2.20;99.90
13960;DHT22;7052;51.050;3.716;2023-01-29T04:41:07;2.20;99.90
13960;DHT22;7052;51.050;3.716;2023-01-29T04:43:41;2.30;99.90
13960;DHT22;7052;51.050;3.716;2023-01-29T04:46:14;2.30;99.90
13960;DHT22;7052;51.050;3.716;2023-01-29T04:49:11;2.30;99.90
13960;DHT22;7052;51.050;3.716;2023-01-29T04:51:54;2.30;99.90
13960;DHT22;7052;51.050;3.716;2023-01-29T04:54:33;2.30;99.90
13960;DHT22;7052;51.050;3.716;2023-01-29T04:57:18;2.30;99.90
13960;DHT22;7052;51.050;3.716;2023-01-29T04:59:52;2.30;99.90
13960;DHT22;7052;51.050;3.716;2023-01-29T05:02:24;2.30;99.90
13960;DHT22;7052;51.050;3.716;2023-01-29T05:04:53;2.30;99.90
13960;DHT22;7052;51.050;3.716;2023-01-29T05:07:23;2.30;99.90
13960;DHT22;7052;51.050;3.716;2023-01-29T05:09:52;2.30;99.90
13960;DHT22;7052;51.050;3.716;2023-01-29T05:12:21;2.30;99.90
13960;DHT22;7052;51.050;3.716;2023-01-29T05:14:53;2.30;99.90
13960;DHT22;7052;51.050;3.716;2023-01-29T05:17:21;2.30;99.90
13960;DHT22;7052;51.050;3.716;2023-01-29T05:19:49;2.30;99.90
13960;DHT22;7052;51.050;3.716;2023-01-29T05:22:17;2.20;99.90
13960;DHT22;7052;51.050;3.716;2023-01-29T05:24:48;2.20;99.90
13960;DHT22;7052;51.050;3.716;2023-01-29T05:27:18;2.30;99.90
13960;DHT22;7052;51.050;3.716;2023-01-29T05:30:05;2.30;99.90
13960;DHT22;7052;51.050;3.716;2023-01-29T05:32:32;2.30;99.90
13960;DHT22;7052;51.050;3.716;2023-01-29T05:35:00;2.20;99.90
13960;DHT22;7052;51.050;3.716;2023-01-29T05:37:30;2.20;99.90
13960;DHT22;7052;51.050;3.716;2023-01-29T05:39:58;2.20;99.90
13960;DHT22;7052;51.050;3.716;2023-01-29T05:42:27;2.20;99.90
13960;DHT22;7052;51.050;3.716;2023-01-29T05:45:00;2.20;99.90
13960;DHT22;7052;51.050;3.716;2023-01-29T05:47:29;2.20;99.90
13960;DHT22;7052;51.050;3.716;2023-01-29T05:49:58;2.20;99.90
13960;DHT22;7052;51.050;3.716;2023-01-29T05:52:26;2.20;99.90
13960;DHT22;7052;51.050;3.716;2023-01-29T05:54:53;2.30;99.90
13960;DHT22;7052;51.050;3.716;2023-01-29T05:57:22;2.30;99.90
13960;DHT22;7052;51.050;3.716;2023-01-29T05:59:50;2.30;99.90
13960;DHT22;7052;51.050;3.716;2023-01-29T06:02:18;2.30;99.90
13960;DHT22;7052;51.050;3.716;2023-01-29T06:04:45;2.20;99.90
13960;DHT22;7052;51.050;3.716;2023-01-29T06:07:12;2.40;99.90
13960;DHT22;7052;51.050;3.716;2023-01-29T06:09:40;2.40;99.90
13960;DHT22;7052;51.050;3.716;2023-01-29T06:12:08;2.40;99.90
13960;DHT22;7052;51.050;3.716;2023-01-29T06:14:43;2.40;99.90
13960;DHT22;7052;51.050;3.716;2023-01-29T06:17:10;2.70;99.90
13960;DHT22;7052;51.050;3.716;2023-01-29T06:19:37;2.50;99.90
13960;DHT22;7052;51.050;3.716;2023-01-29T06:22:04;2.50;99.90
13960;DHT22;7052;51.050;3.716;2023-01-29T06:24:34;2.40;99.90
13960;DHT22;7052;51.050;3.716;2023-01-29T06:27:01;2.50;99.90
13960;DHT22;7052;51.050;3.716;2023-01-29T06:29:29;2.50;99.90
13960;DHT22;7052;51.050;3.716;2023-01-29T06:31:57;2.50;99.90
13960;DHT22;7052;51.050;3.716;2023-01-29T06:34:25;2.50;99.90
13960;DHT22;7052;51.050;3.716;2023-01-29T06:36:52;2.50;99.90
13960;DHT22;7052;51.050;3.716;2023-01-29T06:39:19;2.50;99.90
13960;DHT22;7052;51.050;3.716;2023-01-29T06:41:51;2.50;99.90
13960;DHT22;7052;51.050;3.716;2023-01-29T06:44:20;2.50;99.90
13960;DHT22;7052;51.050;3.716;2023-01-29T06:46:48;2.50;99.90
13960;DHT22;7052;51.050;3.716;2023-01-29T06:49:17;2.50;99.90
13960;DHT22;7052;51.050;3.716;2023-01-29T06:51:44;2.50;99.90
13960;DHT22;7052;51.050;3.716;2023-01-29T06:54:12;2.50;99.90
13960;DHT22;7052;51.050;3.716;2023-01-29T06:56:41;2.60;99.90
13960;DHT22;7052;51.050;3.716;2023-01-29T06:59:11;2.60;99.90
13960;DHT22;7052;51.050;3.716;2023-01-29T07:01:41;2.60;99.90
13960;DHT22;7052;51.050;3.716;2023-01-29T07:04:09;2.60;99.90
13960;DHT22;7052;51.050;3.716;2023-01-29T07:06:40;2.70;99.90
13960;DHT22;7052;51.050;3.716;2023-01-29T07:09:11;2.70;99.90
13960;DHT22;7052;51.050;3.716;2023-01-29T07:11:41;2.70;99.90
13960;DHT22;7052;51.050;3.716;2023-01-29T07:14:11;2.80;99.90
13960;DHT22;7052;51.050;3.716;2023-01-29T07:16:40;2.70;99.90
13960;DHT22;7052;51.050;3.716;2023-01-29T07:19:07;2.80;99.90
13960;DHT22;7052;51.050;3.716;2023-01-29T07:21:39;2.80;99.90
13960;DHT22;7052;51.050;3.716;2023-01-29T07:24:08;2.80;99.90
13960;DHT22;7052;51.050;3.716;2023-01-29T07:26:37;2.80;99.90
13960;DHT22;7052;51.050;3.716;2023-01-29T07:29:05;2.60;99.90
13960;DHT22;7052;51.050;3.716;2023-01-29T07:31:33;2.80;99.90
13960;DHT22;7052;51.050;3.716;2023-01-29T07:34:02;2.80;99.90
13960;DHT22;7052;51.050;3.716;2023-01-29T07:36:30;2.80;99.90
13960;DHT22;7052;51.050;3.716;2023-01-29T07:38:58;2.80;99.90
13960;DHT22;7052;51.050;3.716;2023-01-29T07:41:25;2.80;99.90
13960;DHT22;7052;51.050;3.716;2023-01-29T07:43:51;2.80;99.90
13960;DHT22;7052;51.050;3.716;2023-01-29T07:46:19;2.90;99.90
13960;DHT22;7052;51.050;3.716;2023-01-29T07:48:46;2.80;99.90
13960;DHT22;7052;51.050;3.716;2023-01-29T07:51:13;3.10;99.90
13960;DHT22;7052;51.050;3.716;2023-01-29T07:53:42;2.80;99.90
13960;DHT22;7052;51.050;3.716;2023-01-29T07:56:14;2.70;99.90
13960;DHT22;7052;51.050;3.716;2023-01-29T07:58:48;2.90;99.90
13960;DHT22;7052;51.050;3.716;2023-01-29T08:01:27;3.00;99.90
13960;DHT22;7052;51.050;3.716;2023-01-29T08:03:59;3.00;99.90
13960;DHT22;7052;51.050;3.716;2023-01-29T08:06:28;3.00;99.90
13960;DHT22;7052;51.050;3.716;2023-01-29T08:08:56;3.00;99.90
13960;DHT22;7052;51.050;3.716;2023-01-29T08:11:28;3.00;99.90
13960;DHT22;7052;51.050;3.716;2023-01-29T08:13:57;3.00;99.90
13960;DHT22;7052;51.050;3.716;2023-01-29T08:16:24;3.00;99.90
13960;DHT22;7052;51.050;3.716;2023-01-29T08:18:52;3.10;99.90
13960;DHT22;7052;51.050;3.716;2023-01-29T08:21:20;3.10;99.90
13960;DHT22;7052;51.050;3.716;2023-01-29T08:23:46;3.00;99.90
13960;DHT22;7052;51.050;3.716;2023-01-29T08:26:14;3.10;99.90
13960;DHT22;7052;51.050;3.716;2023-01-29T08:28:45;3.10;99.90
13960;DHT22;7052;51.050;3.716;2023-01-29T08:31:13;3.10;99.90
13960;DHT22;7052;51.050;3.716;2023-01-29T08:33:40;3.50;99.90
13960;DHT22;7052;51.050;3.716;2023-01-29T08:36:10;3.20;99.90
13960;DHT22;7052;51.050;3.716;2023-01-29T08:38:38;3.20;99.90
13960;DHT22;7052;51.050;3.716;2023-01-29T08:41:06;3.90;99.90
13960;DHT22;7052;51.050;3.716;2023-01-29T08:43:36;3.80;99.90
13960;DHT22;7052;51.050;3.716;2023-01-29T08:46:06;3.20;99.90
13960;DHT22;7052;51.050;3.716;2023-01-29T08:48:33;3.30;99.90
13960;DHT22;7052;51.050;3.716;2023-01-29T08:51:08;3.30;99.90
13960;DHT22;7052;51.050;3.716;2023-01-29T08:53:35;3.30;99.90
13960;DHT22;7052;51.050;3.716;2023-01-29T08:56:02;3.40;99.90
13960;DHT22;7052;51.050;3.716;2023-01-29T08:58:32;3.40;99.90
13960;DHT22;7052;51.050;3.716;2023-01-29T09:01:06;3.50;99.90
13960;DHT22;7052;51.050;3.716;2023-01-29T09:03:34;3.50;99.90
13960;DHT22;7052;51.050;3.716;2023-01-29T09:06:02;3.50;99.90
13960;DHT22;7052;51.050;3.716;2023-01-29T09:08:31;3.50;99.90
13960;DHT22;7052;51.050;3.716;2023-01-29T09:11:13;3.50;99.90
13960;DHT22;7052;51.050;3.716;2023-01-29T09:13:45;3.50;99.90
13960;DHT22;7052;51.050;3.716;2023-01-29T09:16:13;3.50;99.90
13960;DHT22;7052;51.050;3.716;2023-01-29T09:18:42;3.50;99.90
13960;DHT22;7052;51.050;3.716;2023-01-29T09:21:12;3.50;99.90
13960;DHT22;7052;51.050;3.716;2023-01-29T09:23:39;3.50;99.90
13960;DHT22;7052;51.050;3.716;2023-01-29T09:26:06;3.50;99.90
13960;DHT22;7052;51.050;3.716;2023-01-29T09:28:35;3.60;99.90
13960;DHT22;7052;51.050;3.716;2023-01-29T09:31:03;3.50;99.90
13960;DHT22;7052;51.050;3.716;2023-01-29T09:33:36;3.50;99.90
13960;DHT22;7052;51.050;3.716;2023-01-29T09:36:04;3.50;99.90
13960;DHT22;7052;51.050;3.716;2023-01-29T09:38:32;3.50;99.90
13960;DHT22;7052;51.050;3.716;2023-01-29T09:41:07;3.60;99.90
13960;DHT22;7052;51.050;3.716;2023-01-29T09:43:44;3.50;99.90
13960;DHT22;7052;51.050;3.716;2023-01-29T09:46:18;3.90;99.90
13960;DHT22;7052;51.050;3.716;2023-01-29T09:48:54;3.60;99.90
13960;DHT22;7052;51.050;3.716;2023-01-29T09:51:28;3.60;99.90
13960;DHT22;7052;51.050;3.716;2023-01-29T09:54:05;3.70;99.90
13960;DHT22;7052;51.050;3.716;2023-01-29T09:56:35;3.70;99.90
13960;DHT22;7052;51.050;3.716;2023-01-29T09:59:02;3.80;99.90
13960;DHT22;7052;51.050;3.716;2023-01-29T10:01:35;3.80;99.90
13960;DHT22;7052;51.050;3.716;2023-01-29T10:04:32;3.50;99.90
13960;DHT22;7052;51.050;3.716;2023-01-29T10:07:21;3.80;99.90
13960;DHT22;7052;51.050;3.716;2023-01-29T10:09:59;3.80;99.90
13960;DHT22;7052;51.050;3.716;2023-01-29T10:12:57;4.10;99.90
13960;DHT22;7052;51.050;3.716;2023-01-29T10:15:40;3.90;99.90
13960;DHT22;7052;51.050;3.716;2023-01-29T10:18:27;3.90;99.90
13960;DHT22;7052;51.050;3.716;2023-01-29T10:21:06;4.10;99.90
13960;DHT22;7052;51.050;3.716;2023-01-29T10:23:41;4.10;99.90
13960;DHT22;7052;51.050;3.716;2023-01-29T10:26:14;4.10;99.90
13960;DHT22;7052;51.050;3.716;2023-01-29T10:28:44;4.10;99.90
13960;DHT22;7052;51.050;3.716;2023-01-29T10:31:17;4.20;99.90
13960;DHT22;7052;51.050;3.716;2023-01-29T10:33:50;4.30;99.90
13960;DHT22;7052;51.050;3.716;2023-01-29T10:36:27;4.20;99.90
13960;DHT22;7052;51.050;3.716;2023-01-29T10:38:57;4.30;99.90
13960;DHT22;7052;51.050;3.716;2023-01-29T10:41:36;4.30;99.90
13960;DHT22;7052;51.050;3.716;2023-01-29T10:44:19;4.40;99.90
13960;DHT22;7052;51.050;3.716;2023-01-29T10:47:11;4.40;99.90
13960;DHT22;7052;51.050;3.716;2023-01-29T10:49:58;4.50;99.90
13960;DHT22;7052;51.050;3.716;2023-01-29T10:52:48;4.60;99.90
13960;DHT22;7052;51.050;3.716;2023-01-29T10:55:24;4.60;99.90
13960;DHT22;7052;51.050;3.716;2023-01-29T10:58:02;4.70;99.90
13960;DHT22;7052;51.050;3.716;2023-01-29T11:00:35;4.70;99.90
13960;DHT22;7052;51.050;3.716;2023-01-29T11:03:15;4.90;99.90
13960;DHT22;7052;51.050;3.716;2023-01-29T11:05:48;4.90;99.90
13960;DHT22;7052;51.050;3.716;2023-01-29T11:08:21;5.00;99.90
13960;DHT22;7052;51.050;3.716;2023-01-29T11:10:56;5.00;99.90
13960;DHT22;7052;51.050;3.716;2023-01-29T11:13:30;5.00;99.90
13960;DHT22;7052;51.050;3.716;2023-01-29T11:15:59;5.10;99.90
13960;DHT22;7052;51.050;3.716;2023-01-29T11:18:26;5.00;99.90
13960;DHT22;7052;51.050;3.716;2023-01-29T11:21:13;5.00;99.90
13960;DHT22;7052;51.050;3.716;2023-01-29T11:23:42;5.10;99.90
13960;DHT22;7052;51.050;3.716;2023-01-29T11:26:11;5.00;99.90
13960;DHT22;7052;51.050;3.716;2023-01-29T11:28:41;5.10;99.90
13960;DHT22;7052;51.050;3.716;2023-01-29T11:31:18;5.10;99.90
13960;DHT22;7052;51.050;3.716;2023-01-29T11:33:46;5.10;99.90
13960;DHT22;7052;51.050;3.716;2023-01-29T11:36:34;5.20;99.90
13960;DHT22;7052;51.050;3.716;2023-01-29T11:39:14;5.30;99.90
13960;DHT22;7052;51.050;3.716;2023-01-29T11:41:47;5.30;99.90
13960;DHT22;7052;51.050;3.716;2023-01-29T11:44:19;5.30;99.90
13960;DHT22;7052;51.050;3.716;2023-01-29T11:46:48;5.40;99.90
13960;DHT22;7052;51.050;3.716;2023-01-29T11:49:26;5.30;99.90
13960;DHT22;7052;51.050;3.716;2023-01-29T11:51:56;5.40;99.90
13960;DHT22;7052;51.050;3.716;2023-01-29T11:54:31;5.40;99.90
13960;DHT22;7052;51.050;3.716;2023-01-29T11:57:01;5.50;99.90
13960;DHT22;7052;51.050;3.716;2023-01-29T11:59:40;5.50;99.90
13960;DHT22;7052;51.050;3.716;2023-01-29T12:02:18;5.50;99.90
13960;DHT22;7052;51.050;3.716;2023-01-29T12:04:47;5.40;99.90
13960;DHT22;7052;51.050;3.716;2023-01-29T12:07:15;5.50;99.90
13960;DHT22;7052;51.050;3.716;2023-01-29T12:09:52;5.50;99.90
13960;DHT22;7052;51.050;3.716;2023-01-29T12:12:36;5.50;99.90
13960;DHT22;7052;51.050;3.716;2023-01-29T12:15:18;5.50;99.90
13960;DHT22;7052;51.050;3.716;2023-01-29T12:17:52;5.60;99.90
13960;DHT22;7052;51.050;3.716;2023-01-29T12:20:24;5.60;99.90
13960;DHT22;7052;51.050;3.716;2023-01-29T12:23:00;5.60;99.90
13960;DHT22;7052;51.050;3.716;2023-01-29T12:25:39;5.50;99.90
13960;DHT22;7052;51.050;3.716;2023-01-29T12:28:18;5.50;99.90
13960;DHT22;7052;51.050;3.716;2023-01-29T12:30:52;5.50;99.90
13960;DHT22;7052;51.050;3.716;2023-01-29T12:33:27;5.40;99.90
13960;DHT22;7052;51.050;3.716;2023-01-29T12:36:01;5.40;99.90
13960;DHT22;7052;51.050;3.716;2023-01-29T12:38:31;5.70;99.90
13960;DHT22;7052;51.050;3.716;2023-01-29T12:41:04;5.40;99.90
13960;DHT22;7052;51.050;3.716;2023-01-29T12:43:37;5.40;99.90
13960;DHT22;7052;51.050;3.716;2023-01-29T12:46:11;5.40;99.90
13960;DHT22;7052;51.050;3.716;2023-01-29T12:48:43;5.40;99.90
13960;DHT22;7052;51.050;3.716;2023-01-29T12:51:16;5.50;99.90
13960;DHT22;7052;51.050;3.716;2023-01-29T12:53:53;5.50;99.90
13960;DHT22;7052;51.050;3.716;2023-01-29T12:56:30;5.50;99.90
13960;DHT22;7052;51.050;3.716;2023-01-29T12:59:04;5.50;99.90
13960;DHT22;7052;51.050;3.716;2023-01-29T13:01:39;5.50;99.90
13960;DHT22;7052;51.050;3.716;2023-01-29T13:04:12;5.60;99.90
13960;DHT22;7052;51.050;3.716;2023-01-29T13:06:45;5.50;99.90
13960;DHT22;7052;51.050;3.716;2023-01-29T13:09:16;5.50;99.90
13960;DHT22;7052;51.050;3.716;2023-01-29T13:11:50;5.70;99.90
13960;DHT22;7052;51.050;3.716;2023-01-29T13:14:21;5.60;99.90
13960;DHT22;7052;51.050;3.716;2023-01-29T13:16:53;5.60;99.90
13960;DHT22;7052;51.050;3.716;2023-01-29T13:19:25;5.60;99.90
13960;DHT22;7052;51.050;3.716;2023-01-29T13:21:54;5.60;99.90
13960;DHT22;7052;51.050;3.716;2023-01-29T13:24:26;5.60;99.90
13960;DHT22;7052;51.050;3.716;2023-01-29T13:27:11;5.60;99.90
13960;DHT22;7052;51.050;3.716;2023-01-29T13:29:49;5.60;99.90
13960;DHT22;7052;51.050;3.716;2023-01-29T13:32:22;5.60;99.90
13960;DHT22;7052;51.050;3.716;2023-01-29T13:34:52;5.60;99.90
13960;DHT22;7052;51.050;3.716;2023-01-29T13:37:26;5.60;99.90
13960;DHT22;7052;51.050;3.716;2023-01-29T13:39:57;5.60;99.90
13960;DHT22;7052;51.050;3.716;2023-01-29T13:42:38;5.80;99.90
13960;DHT22;7052;51.050;3.716;2023-01-29T13:45:07;5.70;99.90
13960;DHT22;7052;51.050;3.716;2023-01-29T13:47:35;5.70;99.90
13960;DHT22;7052;51.050;3.716;2023-01-29T13:50:06;5.60;99.90
13960;DHT22;7052;51.050;3.716;2023-01-29T13:52:37;5.60;99.90
13960;DHT22;7052;51.050;3.716;2023-01-29T13:55:20;5.60;99.90
13960;DHT22;7052;51.050;3.716;2023-01-29T13:58:03;5.60;99.90
13960;DHT22;7052;51.050;3.716;2023-01-29T14:00:55;5.60;99.90
13960;DHT22;7052;51.050;3.716;2023-01-29T14:03:41;5.70;99.90
13960;DHT22;7052;51.050;3.716;2023-01-29T14:06:09;5.60;99.90
13960;DHT22;7052;51.050;3.716;2023-01-29T14:08:39;5.60;99.90
13960;DHT22;7052;51.050;3.716;2023-01-29T14:11:27;5.60;99.90
13960;DHT22;7052;51.050;3.716;2023-01-29T14:14:01;5.60;99.90
13960;DHT22;7052;51.050;3.716;2023-01-29T14:16:59;5.60;99.90
13960;DHT22;7052;51.050;3.716;2023-01-29T14:19:28;5.60;99.90
13960;DHT22;7052;51.050;3.716;2023-01-29T14:22:03;5.60;99.90
13960;DHT22;7052;51.050;3.716;2023-01-29T14:24:33;5.50;99.90
13960;DHT22;7052;51.050;3.716;2023-01-29T14:27:00;5.50;99.90
13960;DHT22;7052;51.050;3.716;2023-01-29T14:29:29;5.50;99.90
13960;DHT22;7052;51.050;3.716;2023-01-29T14:31:59;5.60;99.90
13960;DHT22;7052;51.050;3.716;2023-01-29T14:34:35;5.50;99.90
13960;DHT22;7052;51.050;3.716;2023-01-29T14:37:03;5.50;99.90
13960;DHT22;7052;51.050;3.716;2023-01-29T14:39:44;5.50;99.90
13960;DHT22;7052;51.050;3.716;2023-01-29T14:42:22;5.40;99.90
13960;DHT22;7052;51.050;3.716;2023-01-29T14:44:57;5.40;99.90
13960;DHT22;7052;51.050;3.716;2023-01-29T14:47:52;5.40;99.90
13960;DHT22;7052;51.050;3.716;2023-01-29T14:50:42;5.40;99.90
13960;DHT22;7052;51.050;3.716;2023-01-29T14:53:18;5.40;99.90
13960;DHT22;7052;51.050;3.716;2023-01-29T14:55:49;5.40;99.90
13960;DHT22;7052;51.050;3.716;2023-01-29T14:58:23;5.40;99.90
13960;DHT22;7052;51.050;3.716;2023-01-29T15:00:54;5.40;99.90
13960;DHT22;7052;51.050;3.716;2023-01-29T15:03:34;5.40;99.90
13960;DHT22;7052;51.050;3.716;2023-01-29T15:06:03;5.40;99.90
13960;DHT22;7052;51.050;3.716;2023-01-29T15:08:37;5.40;99.90
13960;DHT22;7052;51.050;3.716;2023-01-29T15:11:16;5.40;99.90
13960;DHT22;7052;51.050;3.716;2023-01-29T15:14:13;5.40;99.90
13960;DHT22;7052;51.050;3.716;2023-01-29T15:16:52;5.40;99.90
13960;DHT22;7052;51.050;3.716;2023-01-29T15:19:27;5.40;99.90
13960;DHT22;7052;51.050;3.716;2023-01-29T15:22:08;5.40;99.90
13960;DHT22;7052;51.050;3.716;2023-01-29T15:24:36;5.40;99.90
13960;DHT22;7052;51.050;3.716;2023-01-29T15:27:05;5.40;99.90
13960;DHT22;7052;51.050;3.716;2023-01-29T15:29:36;5.40;99.90
13960;DHT22;7052;51.050;3.716;2023-01-29T15:32:05;5.40;99.90
13960;DHT22;7052;51.050;3.716;2023-01-29T15:34:34;5.40;99.90
13960;DHT22;7052;51.050;3.716;2023-01-29T15:37:01;5.40;99.90
13960;DHT22;7052;51.050;3.716;2023-01-29T15:39:28;5.30;99.90
13960;DHT22;7052;51.050;3.716;2023-01-29T15:42:12;5.30;99.90
13960;DHT22;7052;51.050;3.716;2023-01-29T15:44:43;5.30;99.90
13960;DHT22;7052;51.050;3.716;2023-01-29T15:47:12;5.40;99.90
13960;DHT22;7052;51.050;3.716;2023-01-29T15:49:45;5.40;99.90
13960;DHT22;7052;51.050;3.716;2023-01-29T15:52:16;5.30;99.90
13960;DHT22;7052;51.050;3.716;2023-01-29T15:54:47;5.30;99.90
13960;DHT22;7052;51.050;3.716;2023-01-29T15:57:21;5.30;99.90
13960;DHT22;7052;51.050;3.716;2023-01-29T15:59:49;5.30;99.90
13960;DHT22;7052;51.050;3.716;2023-01-29T16:02:19;5.20;99.90
13960;DHT22;7052;51.050;3.716;2023-01-29T16:04:54;5.20;99.90
13960;DHT22;7052;51.050;3.716;2023-01-29T16:07:22;5.20;99.90
13960;DHT22;7052;51.050;3.716;2023-01-29T16:09:50;5.20;99.90
13960;DHT22;7052;51.050;3.716;2023-01-29T16:12:18;5.20;99.90
13960;DHT22;7052;51.050;3.716;2023-01-29T16:14:46;5.20;99.90
13960;DHT22;7052;51.050;3.716;2023-01-29T16:17:22;5.10;99.90
13960;DHT22;7052;51.050;3.716;2023-01-29T16:19:59;5.10;99.90
13960;DHT22;7052;51.050;3.716;2023-01-29T16:22:28;5.10;99.90
13960;DHT22;7052;51.050;3.716;2023-01-29T16:24:59;5.10;99.90
13960;DHT22;7052;51.050;3.716;2023-01-29T16:27:27;5.10;99.90
13960;DHT22;7052;51.050;3.716;2023-01-29T16:29:55;5.00;99.90
13960;DHT22;7052;51.050;3.716;2023-01-29T16:32:26;5.00;99.90
13960;DHT22;7052;51.050;3.716;2023-01-29T16:34:59;5.00;99.90
13960;DHT22;7052;51.050;3.716;2023-01-29T16:37:33;5.00;99.90
13960;DHT22;7052;51.050;3.716;2023-01-29T16:40:12;5.00;99.90
13960;DHT22;7052;51.050;3.716;2023-01-29T16:42:42;4.90;99.90
13960;DHT22;7052;51.050;3.716;2023-01-29T16:45:25;4.90;99.90